Tasman Crusader — A8NQ7 — position and weather

sailwx.info

Track history (hours):
 
Tides and Currents Weather Stations Pressure Air Temp Water Temp Dewpoint Dewpoint Depression Visibility Wind Speed Wind Dir Waves Ship Positions

Tasman Crusader

Last reported at 2014-Jul-25 20:32 UTC. Time now 2014-Jul-25 20:47 UTC.
Position N 33°43' W 118°13'.

Length 186 m; draft 8.2 m.

Type: Cargo ship. MMSI: 636091434.

Date/timePositionNaut miles runAvg speedWind from/ knotsBaromVisibWave heightAir tempDewpointWater temp
2014-Jul-25 20:32N 33°43' W 118°13'0 0.1
2014-Jul-25 19:32N 33°43' W 118°13'0 0.0
2014-Jul-25 18:29N 33°43' W 118°13'1 0.7
2014-Jul-25 17:33N 33°42' W 118°13'8 8.3
2014-Jul-25 16:33N 33°36' W 118°20'1110.9
2014-Jul-25 15:33N 33°41' W 118°32'1110.6
2014-Jul-25 14:33N 33°46' W 118°43'1010.4
2014-Jul-25 13:33N 33°52' W 118°53'1210.6
2014-Jul-25 12:27N 33°57' W 119°06'1011.0
2014-Jul-25 11:33N 34°03' W 119°15'6 1.3
2014-Jul-25 06:27N 34°09' W 119°12'0 0.0
2014-Jul-25 05:30N 34°09' W 119°12'0 0.0
2014-Jul-25 04:33N 34°09' W 119°12'0 0.0
2014-Jul-25 03:21N 34°09' W 119°12'0 0.0
2014-Jul-25 02:27N 34°09' W 119°12'0 0.0
2014-Jul-25 01:33N 34°09' W 119°12'0 0.0
2014-Jul-25 00:27N 34°09' W 119°12'0 0.0
2014-Jul-24 23:33N 34°09' W 119°12'0 0.0
2014-Jul-24 22:33N 34°09' W 119°12'0 0.0
2014-Jul-24 21:33N 34°09' W 119°12'0 0.0
2014-Jul-24 20:33N 34°09' W 119°12'0 0.0
2014-Jul-24 19:33N 34°09' W 119°12'0 0.0
2014-Jul-24 18:33N 34°09' W 119°12'0 0.0
2014-Jul-24 17:32N 34°09' W 119°12'0 0.0
2014-Jul-24 16:33N 34°09' W 119°12'0 0.0
2014-Jul-24 13:21N 34°09' W 119°12'0 0.0
2014-Jul-24 12:32N 34°09' W 119°12'0 0.0
2014-Jul-24 11:26N 34°09' W 119°12'0 0.0
2014-Jul-24 10:29N 34°09' W 119°12'0 0.0
2014-Jul-24 09:26N 34°09' W 119°12'0 0.0
2014-Jul-24 07:14N 34°09' W 119°12'0 0.0
2014-Jul-24 06:14N 34°09' W 119°12'0 0.0
2014-Jul-24 05:32N 34°09' W 119°12'0 0.0
2014-Jul-24 03:23N 34°09' W 119°12'0 0.0
2014-Jul-24 02:29N 34°09' W 119°12'0 0.0
2014-Jul-24 01:08N 34°09' W 119°12'0 0.0
2014-Jul-24 00:32N 34°09' W 119°12'0 0.0
2014-Jul-23 23:29N 34°09' W 119°12'0 0.0
2014-Jul-23 22:26N 34°09' W 119°12'0 0.0
2014-Jul-23 21:32N 34°09' W 119°12'0 0.0
2014-Jul-23 20:32N 34°09' W 119°12'0 0.0
2014-Jul-23 19:26N 34°09' W 119°12'0 0.0
2014-Jul-23 18:29N 34°09' W 119°12'0 0.0
2014-Jul-23 17:26N 34°09' W 119°12'0 0.0
2014-Jul-23 15:32N 34°09' W 119°12'0 0.0
2014-Jul-23 14:32N 34°09' W 119°12'0 0.0
2014-Jul-23 13:33N 34°09' W 119°12'5 4.8
2014-Jul-23 12:33N 34°04' W 119°14'1110.7
2014-Jul-23 11:33N 33°59' W 119°03'1110.7
2014-Jul-23 10:33N 33°53' W 118°52'1110.5
2014-Jul-23 09:33N 33°48' W 118°41'1111.1
2014-Jul-23 08:33N 33°43' W 118°29'1110.5
2014-Jul-23 07:32N 33°38' W 118°18'10 9.8
2014-Jul-23 06:33N 33°33' W 118°08'1110.8
2014-Jul-23 05:33N 33°22' W 118°04'1110.9
2014-Jul-23 04:33N 33°12' W 117°59'1111.1
2014-Jul-23 03:33N 33°02' W 117°55'1211.5
2014-Jul-23 02:33N 32°51' W 117°50'1111.4
2014-Jul-23 01:33N 32°40' W 117°46'1110.8
2014-Jul-23 00:33N 32°30' W 117°40'1211.8
2014-Jul-22 23:33N 32°19' W 117°37'1313.1
2014-Jul-22 22:33N 32°07' W 117°31'1515.1
2014-Jul-22 21:33N 31°52' W 117°25'1615.1
2014-Jul-22 20:31N 31°38' W 117°19'1515.3
2014-Jul-22 19:33N 31°24' W 117°14'1715.7
2014-Jul-22 18:29N 31°08' W 117°07'10716.6
2014-Jul-22 12:04N 29°27' W 116°26'30416.8
2014-Jul-21 18:00N 25°06' W 113°30'42017.5 330 / 151016.010.8 2.022.020.6
2014-Jul-20 18:00N 20°42' W 107°36'41017.1 050 / 81014.510.8 1.031.027.1
2014-Jul-19 18:00N 17°12' W 101°24'41717.4 080 / 71012.510.8 1.031.521.7
2014-Jul-18 18:00N 14°36' W 094°42'   320 / 91013.510.8 1.031.031.0
Track history (hours):
 
Tides and Currents Weather Stations Pressure Air Temp Water Temp Dewpoint Dewpoint Depression Visibility Wind Speed Wind Dir Waves Ship Positions

Tasman Crusader

Last reported at 2014-Jul-25 20:32 UTC. Time now 2014-Jul-25 20:47 UTC.
Position N 33°43' W 118°13'.

Length 186 m; draft 8.2 m.

Type: Cargo ship. MMSI: 636091434.

Date/timePositionNaut miles runAvg speedWind from/ knotsBaromVisibWave heightAir tempDewpointWater temp
2014-Jul-25 20:32N 33°43' W 118°13'0 0.1
2014-Jul-25 19:32N 33°43' W 118°13'0 0.0
2014-Jul-25 18:29N 33°43' W 118°13'1 0.7
2014-Jul-25 17:33N 33°42' W 118°13'8 8.3
2014-Jul-25 16:33N 33°36' W 118°20'1110.9
2014-Jul-25 15:33N 33°41' W 118°32'1110.6
2014-Jul-25 14:33N 33°46' W 118°43'1010.4
2014-Jul-25 13:33N 33°52' W 118°53'1210.6
2014-Jul-25 12:27N 33°57' W 119°06'1011.0
2014-Jul-25 11:33N 34°03' W 119°15'6 1.3
2014-Jul-25 06:27N 34°09' W 119°12'0 0.0
2014-Jul-25 05:30N 34°09' W 119°12'0 0.0
2014-Jul-25 04:33N 34°09' W 119°12'0 0.0
2014-Jul-25 03:21N 34°09' W 119°12'0 0.0
2014-Jul-25 02:27N 34°09' W 119°12'0 0.0
2014-Jul-25 01:33N 34°09' W 119°12'0 0.0
2014-Jul-25 00:27N 34°09' W 119°12'0 0.0
2014-Jul-24 23:33N 34°09' W 119°12'0 0.0
2014-Jul-24 22:33N 34°09' W 119°12'0 0.0
2014-Jul-24 21:33N 34°09' W 119°12'0 0.0
2014-Jul-24 20:33N 34°09' W 119°12'0 0.0
2014-Jul-24 19:33N 34°09' W 119°12'0 0.0
2014-Jul-24 18:33N 34°09' W 119°12'0 0.0
2014-Jul-24 17:32N 34°09' W 119°12'0 0.0
2014-Jul-24 16:33N 34°09' W 119°12'0 0.0
2014-Jul-24 13:21N 34°09' W 119°12'0 0.0
2014-Jul-24 12:32N 34°09' W 119°12'0 0.0
2014-Jul-24 11:26N 34°09' W 119°12'0 0.0
2014-Jul-24 10:29N 34°09' W 119°12'0 0.0
2014-Jul-24 09:26N 34°09' W 119°12'0 0.0
2014-Jul-24 07:14N 34°09' W 119°12'0 0.0
2014-Jul-24 06:14N 34°09' W 119°12'0 0.0
2014-Jul-24 05:32N 34°09' W 119°12'0 0.0
2014-Jul-24 03:23N 34°09' W 119°12'0 0.0
2014-Jul-24 02:29N 34°09' W 119°12'0 0.0
2014-Jul-24 01:08N 34°09' W 119°12'0 0.0
2014-Jul-24 00:32N 34°09' W 119°12'0 0.0
2014-Jul-23 23:29N 34°09' W 119°12'0 0.0
2014-Jul-23 22:26N 34°09' W 119°12'0 0.0
2014-Jul-23 21:32N 34°09' W 119°12'0 0.0
2014-Jul-23 20:32N 34°09' W 119°12'0 0.0
2014-Jul-23 19:26N 34°09' W 119°12'0 0.0
2014-Jul-23 18:29N 34°09' W 119°12'0 0.0
2014-Jul-23 17:26N 34°09' W 119°12'0 0.0
2014-Jul-23 15:32N 34°09' W 119°12'0 0.0
2014-Jul-23 14:32N 34°09' W 119°12'0 0.0
2014-Jul-23 13:33N 34°09' W 119°12'5 4.8
2014-Jul-23 12:33N 34°04' W 119°14'1110.7
2014-Jul-23 11:33N 33°59' W 119°03'1110.7
2014-Jul-23 10:33N 33°53' W 118°52'1110.5
2014-Jul-23 09:33N 33°48' W 118°41'1111.1
2014-Jul-23 08:33N 33°43' W 118°29'1110.5
2014-Jul-23 07:32N 33°38' W 118°18'10 9.8
2014-Jul-23 06:33N 33°33' W 118°08'1110.8
2014-Jul-23 05:33N 33°22' W 118°04'1110.9
2014-Jul-23 04:33N 33°12' W 117°59'1111.1
2014-Jul-23 03:33N 33°02' W 117°55'1211.5
2014-Jul-23 02:33N 32°51' W 117°50'1111.4
2014-Jul-23 01:33N 32°40' W 117°46'1110.8
2014-Jul-23 00:33N 32°30' W 117°40'1211.8
2014-Jul-22 23:33N 32°19' W 117°37'1313.1
2014-Jul-22 22:33N 32°07' W 117°31'1515.1
2014-Jul-22 21:33N 31°52' W 117°25'1615.1
2014-Jul-22 20:31N 31°38' W 117°19'1515.3
2014-Jul-22 19:33N 31°24' W 117°14'1715.7
2014-Jul-22 18:29N 31°08' W 117°07'10716.6
2014-Jul-22 12:04N 29°27' W 116°26'30416.8
2014-Jul-21 18:00N 25°06' W 113°30'42017.5 330 / 151016.010.8 2.022.020.6
2014-Jul-20 18:00N 20°42' W 107°36'41017.1 050 / 81014.510.8 1.031.027.1
2014-Jul-19 18:00N 17°12' W 101°24'41717.4 080 / 71012.510.8 1.031.521.7
2014-Jul-18 18:00N 14°36' W 094°42'   320 / 91013.510.8 1.031.031.0

Dump ship's entire track history